Flight Track Log - Related Links

Times and Time Zones

All times are in EDT time to prevent confusion due to time zone crossing. See the ELJ112 flight status page for this flight to view local times or setup timezone preferences in your user account.

Time Position Orientation Groundspeed Altitude Reporting Facility
EDT Latitude Longitude Course Direction KTS MPH feet Rate Location/Type
Tue 01:33:04 PM 32.1233 -81.1583 190° South 195 224 1,900  Level Jacksonville Center
Tue 01:34:04 PM 32.0644 -81.1300 158° South 262 302 5,000 3,300 Climbing Jacksonville Center
Tue 01:35:04 PM 32.0000 -81.1433 190° South 254 292 8,500 3,250 Climbing Jacksonville Center
Tue 01:36:04 PM 31.9208 -81.1669 194° South 262 302 11,500 3,050 Climbing Jacksonville Center
Tue 01:37:04 PM 31.8461 -81.2000 201° Southwest 279 321 14,600 2,750 Climbing Jacksonville Center
Tue 01:38:00 PM 31.6764 -81.2747 190° South  Level FlightAware Approximate
Tue 01:38:04 PM 31.7906 -81.2550 220° Southwest 292 336 17,000  Level Jacksonville Center
Tue 01:39:04 PM 31.7183 -81.3294 221° Southwest 314 361 19,500 2,450 Climbing Jacksonville Center
Tue 01:40:04 PM 31.6483 -81.3989 220° Southwest 330 380 21,900 2,050 Climbing Jacksonville Center
Tue 01:41:04 PM 31.5844 -81.4658 222° Southwest 335 386 23,600 1,650 Climbing Jacksonville Center
Tue 01:42:04 PM 31.5017 -81.5475 220° Southwest 355 409 25,200 1,200 Climbing Jacksonville Center
Tue 01:43:04 PM 31.4314 -81.6217 222° Southwest 374 430 26,000 650 Climbing Jacksonville Center
Tue 01:44:04 PM 31.3425 -81.7031 218° Southwest 399 459 26,500 1,000 Climbing Jacksonville Center
Tue 01:45:04 PM 31.2406 -81.7456 200° South 399 459 28,000 1,650 Climbing Jacksonville Center
Tue 01:46:04 PM 31.1386 -81.7808 196° South 391 450 29,800 1,700 Climbing Jacksonville Center
Tue 01:47:04 PM 31.0386 -81.8136 196° South 386 444 31,400 1,550 Climbing Jacksonville Center
Tue 01:48:04 PM 30.9408 -81.8461 196° South 375 432 32,900 1,250 Climbing Jacksonville Center
Tue 01:49:04 PM 30.8431 -81.8836 198° South 370 426 33,900 950 Climbing Jacksonville Center
Tue 01:50:04 PM 30.7408 -81.9161 195° South 375 432 34,800 850 Climbing Jacksonville Center
Tue 01:51:04 PM 30.6347 -81.9533 197° South 380 437 35,600 600 Climbing Jacksonville Center
Tue 01:52:04 PM 30.5181 -81.9883 194° South 387 445 36,000 200 Climbing Jacksonville Center
Tue 01:53:04 PM 30.4161 -82.0253 197° South 398 458 36,000  Level Jacksonville Center
Tue 01:54:04 PM 30.3139 -82.0600 196° South 398 458 36,000  Level Jacksonville Center
Tue 01:55:04 PM 30.2078 -82.0944 196° South 393 452 36,000  Level Jacksonville Center
Tue 01:56:04 PM 30.1014 -82.1339 198° South 398 458 36,000 -300 Level Jacksonville Center
Tue 01:57:04 PM 29.9931 -82.1731 197° South 398 458 35,400 -500 Descending Jacksonville Center
Tue 01:58:04 PM 29.8889 -82.2075 196° South 398 458 35,000 -200 Descending Jacksonville Center
Tue 01:59:04 PM 29.7847 -82.2272 189° South 392 451 35,000 -550 Level Jacksonville Center
Tue 02:00:04 PM 29.6739 -82.2136 174° South 392 451 33,900 -2,250 Descending Jacksonville Center
Tue 02:01:04 PM 29.5589 -82.2050 176° South 400 460 30,500 -3,600 Descending Jacksonville Center
Tue 02:02:04 PM 29.4442 -82.1939 175° South 412 474 26,700 -3,550 Descending Jacksonville Center
Tue 02:03:04 PM 29.3314 -82.1803 174° South 417 480 23,400 -2,700 Descending Jacksonville Center
Tue 02:04:04 PM 29.2247 -82.1717 176° South 407 468 21,300 -1,200 Descending Jacksonville Center
Tue 02:05:04 PM 29.1183 -82.1628 176° South 394 453 21,000 -800 Descending Jacksonville Center
Tue 02:06:04 PM 29.0117 -82.1517 175° South 389 448 19,700 -1,500 Descending Jacksonville Center
Tue 02:07:04 PM 28.9200 -82.1431 175° South 383 441 18,000 -1,750 Descending Jacksonville Center
Tue 02:08:04 PM 28.8197 -82.1319 174° South 378 435 16,200 -1,639 Descending Jacksonville Center
Tue 02:10:18 PM 28.6000 -82.1000 173° South 340 391 12,700 -1,292 Descending Tampa TRACON
Tue 02:11:19 PM 28.5000 -82.1000 180° South 327 376 12,000 -397 Descending Tampa TRACON
Tue 02:12:19 PM 28.4167 -82.1000 180° South 318 366 11,900 -50 Descending Tampa TRACON
Tue 02:13:19 PM 28.3333 -82.1167 190° South 326 375 11,900  Level Tampa TRACON
Tue 02:14:19 PM 28.2333 -82.1333 188° South 318 366 11,900 50 Level Tampa TRACON
Tue 02:15:19 PM 28.1500 -82.1500 190° South 319 367 12,000 50 Climbing Tampa TRACON
Tue 02:16:19 PM 28.0667 -82.1667 190° South 318 366 12,000 -450 Level Tampa TRACON
Tue 02:17:19 PM 27.9833 -82.1833 190° South 312 359 11,100 -1,000 Descending Tampa TRACON
Tue 02:18:19 PM 27.9000 -82.2167 199° South 303 349 10,000 -550 Descending Tampa TRACON
Tue 02:19:19 PM 27.8167 -82.2333 190° South 283 326 10,000  Level Tampa TRACON
Tue 02:20:19 PM 27.7667 -82.3000 230° Southwest 287 330 10,000  Level Tampa TRACON
Tue 02:21:19 PM 27.7000 -82.3500 214° Southwest 291 335 10,000 -850 Level Tampa TRACON
Tue 02:22:19 PM 27.6333 -82.4000 214° Southwest 278 320 8,300 -1,000 Descending Tampa TRACON
Tue 02:23:19 PM 27.5667 -82.4333 204° Southwest 253 291 8,000 -150 Descending Tampa TRACON
Tue 02:24:19 PM 27.5000 -82.4500 193° South 267 307 8,000  Level Tampa TRACON
Tue 02:25:19 PM 27.4333 -82.5000 214° Southwest 260 299 8,000 -150 Level Tampa TRACON
Tue 02:26:19 PM 27.3667 -82.5333 204° Southwest 285 328 7,700 -1,190 Descending Tampa TRACON
Tue 02:27:20 PM 27.2833 -82.5167 170° South 262 302 5,600 -2,231 Descending Tampa TRACON
Tue 02:28:20 PM 27.2167 -82.5000 167° South 261 300 3,200 -2,000 Descending Tampa TRACON
Tue 02:29:20 PM 27.1667 -82.4667 149° Southeast 217 250 1,600 -1,600 Descending Tampa TRACON

Login

Don't have an account? Register now (free) for customized features, flight alerts, and more!